Hay Miller Street, Australia
Current Conditions -  °F | °C
As of 7:00 PM on Sunday 23 Nov 2014 (Local Time) from YGTH Reporting Station
Clear Clear  
Wind Chill: 93°   Ceiling: Unl
Heat Index: 93°   Visibility: 6mi
Dew Point: 52°   Wind: 16mph
Humidity: 24%   Direction: 230°SW
Pressure: 29.83"   Gusts: NA
Location:  34.52°S, 144.86°E
Report Text: YGTH 230800Z AUTO 23014KT 9999 // NCD 34/11 Q1010
Loading
Personal Weather Stations






























Interactive Weather Map New forecast layout! Learn more

10-Day Weather Forecast

Advertisements
Track Severe Weather on mobile